Sao Paulo, Brazil
Current Conditions -  °F | °C
As of 11:00 PM on Wednesday 28 Jan 2015 (Local Time) from SBMT Reporting Station
Thunderstorm Thunderstorm  
Wind Chill: 79°   Ceiling: 10000
Heat Index: 81°   Visibility: 6mi
Dew Point: 64°   Wind: 3mph
Humidity: 61%   Direction: 50°NE
Pressure: 30.03"   Gusts: NA
Location:  23.53°S, 46.63°W
Report Text: SBMT 290100Z 05003KT 9999 VCTS FEW050CB BKN100 26/18 Q1017
Loading
Personal Weather Stations






























Interactive Weather Map New forecast layout! Learn more

10-Day Weather Forecast

Advertisements
Track Severe Weather on mobile